Mackinaw City, MI

5:28 PM EDT on August 24, 2016 (GMT -0400)
Mackinac Bridge | | Change Station
Active Advisory: Beach Hazard Statement Active Notice: Local Storm Report

Elev 587 ft 45.79 °N, 84.73 °W | Updated 14 minutes ago

Overcast
Overcast
72.0 °F
Feels Like 72.0 °F
N
1.7
Wind Variable Wind from North

Today
High -- | Low -- °F
--% Chance of Precip.
Yesterday
High -- | Low -- °F
Precip. -- in
Pressure 29.85 in
Visibility 10.0 miles
Clouds Scattered Clouds 2500 ft
Scattered Clouds 3600 ft
Overcast 4800 ft
Dew Point 68 °F
Humidity 88%
Rainfall Not available.
Snow Depth Not available.
6:50 AM 8:30 PM
Waning Gibbous, 53% visible
METAR KMCD 242115Z AUTO 22005KT 10SM SCT025 SCT036 OVC048 21/21 A2985 RMK AO2 T02080208
Pressure 29.85 in
Visibility 10.0 miles
Clouds Scattered Clouds 2500 ft
Scattered Clouds 3600 ft
Overcast 4800 ft
Dew Point 68 °F
Humidity 88%
Rainfall Not available.
Snow Depth Not available.
6:50 AM 8:30 PM
Waning Gibbous, 53% visible
METAR KMCD 242115Z AUTO 22005KT 10SM SCT025 SCT036 OVC048 21/21 A2985 RMK AO2 T02080208

10-Day Weather Forecast

Almanac

Astronomy

Aug. 24, 2016 Rise Set
Actual Time
Civil Twilight
Nautical Twilight
Astronomical Twilight
Moon
Length of Visible Light
Length of Day
Tomorrow will be .
, % of the Moon is Illuminated

Today's Extremes

State Highs State Lows

Community

WunderPhotos

Upload Photos

1,934,719 photos uploaded!

WunderBlog® & News

Nearby

Air Quality

  Air Quality AQ Index Pollutant
Not available.

Snow Depth

Station Depth Elevation

Earthquake Activity

City Distance Mag. Time & Date
Minimum magnitude displayed is 2.5.

Coastal Water Temperatures

Place Temperature

Stations

Nearby Weather Stations

Station Location Temp. Windchill Dew Point Humidity Wind Precip. Elev Updated Type
                   

Watches & Warnings

Beach Hazard Statement
Issued: 3:39 PM EDT Aug. 24, 2016 – National Weather Service

... Beach hazards statement remains in effect until 11 PM EDT this
evening...

* hazards... high waves and dangerous currents.

* Timing... through this evening.

* Location... Lake Michigan beaches of northwest lower Michigan
and eastern Upper Michigan from The Straits to Seul Choix
Point.

* Potential impacts... hazardous swimming conditions.

Precautionary/preparedness actions...

A high swim risk means life threatening waves and currents are
expected. Stay out of the water and stay away from dangerous
areas like piers and breakwalls.